createdAt,value
2023-05-06T00:02:23.260Z,12.41
2023-05-06T00:04:51.215Z,12.38
2023-05-06T00:07:19.190Z,12.35
2023-05-06T00:09:47.011Z,12.32
2023-05-06T00:12:16.205Z,12.29
2023-05-06T00:14:44.057Z,12.24
2023-05-06T00:17:11.908Z,12.21
2023-05-06T00:19:39.793Z,12.16
2023-05-06T00:22:07.629Z,12.14
2023-05-06T00:24:35.418Z,12.14
2023-05-06T00:27:03.356Z,12.12
2023-05-06T00:29:32.512Z,12.12
2023-05-06T00:32:00.377Z,12.09
2023-05-06T00:34:28.254Z,12.09
2023-05-06T00:36:56.097Z,12.08
2023-05-06T00:39:24.043Z,12.08
2023-05-06T00:41:52.389Z,12.09
2023-05-06T00:44:20.684Z,12.07
2023-05-06T00:46:49.848Z,12.07
2023-05-06T00:49:17.892Z,12.05
2023-05-06T00:51:45.879Z,12.05
2023-05-06T00:54:14.330Z,12.06
2023-05-06T00:56:42.741Z,12.05
2023-05-06T00:59:10.826Z,12.06
2023-05-06T01:01:38.851Z,12.04
2023-05-06T01:04:08.810Z,12.04
2023-05-06T01:06:43.478Z,12.01
2023-05-06T01:09:20.564Z,12.00
2023-05-06T01:11:51.981Z,12.00
2023-05-06T01:14:27.256Z,12.00
2023-05-06T01:16:59.230Z,12.00
2023-05-06T01:19:38.958Z,11.98
2023-05-06T01:22:07.489Z,11.98
2023-05-06T01:24:42.211Z,11.98
2023-05-06T01:27:11.581Z,11.96
2023-05-06T01:29:42.493Z,11.94
2023-05-06T01:32:34.861Z,11.93
2023-05-06T01:35:10.318Z,11.91
2023-05-06T01:37:46.270Z,11.90
2023-05-06T01:40:17.617Z,11.88
2023-05-06T01:42:48.898Z,11.88
2023-05-06T01:45:17.745Z,11.87
2023-05-06T01:47:47.596Z,11.87
2023-05-06T01:50:16.170Z,11.86
2023-05-06T01:52:44.057Z,11.83
2023-05-06T01:55:12.922Z,11.83
2023-05-06T01:57:42.209Z,11.81
2023-05-06T02:00:11.254Z,11.80
2023-05-06T02:02:41.814Z,11.77
2023-05-06T02:05:10.143Z,11.75
2023-05-06T02:07:43.809Z,11.71
2023-05-06T02:10:12.283Z,11.68
2023-05-06T02:12:45.387Z,11.67
2023-05-06T02:15:13.320Z,11.64
2023-05-06T02:17:41.229Z,11.63
2023-05-06T02:20:10.632Z,11.61
2023-05-06T02:22:38.583Z,11.56
2023-05-06T02:25:07.852Z,11.53
2023-05-06T02:27:35.909Z,11.50
2023-05-06T02:30:06.389Z,11.49
2023-05-06T02:32:34.209Z,11.48
2023-05-06T02:35:02.079Z,11.44
2023-05-06T02:37:29.896Z,11.41
2023-05-06T02:39:57.696Z,11.39
2023-05-06T02:42:25.604Z,11.38
2023-05-06T02:44:53.413Z,11.36
2023-05-06T02:47:22.682Z,11.34
2023-05-06T02:49:50.745Z,11.34
2023-05-06T02:52:19.844Z,11.33
2023-05-06T02:54:47.925Z,11.32
2023-05-06T02:57:15.919Z,11.31
2023-05-06T02:59:43.926Z,11.29
2023-05-06T03:02:11.704Z,11.29
2023-05-06T03:04:41.023Z,11.30
2023-05-06T03:07:08.866Z,11.28
2023-05-06T03:09:37.013Z,11.28
2023-05-06T03:12:05.011Z,11.29
2023-05-06T03:14:32.998Z,11.28
2023-05-06T03:17:01.056Z,11.28
2023-05-06T03:19:29.222Z,11.28
2023-05-06T03:21:58.750Z,11.27
2023-05-06T03:24:27.258Z,11.26
2023-05-06T03:26:55.293Z,11.25
2023-05-06T03:29:23.270Z,11.26
2023-05-06T03:31:51.853Z,11.27
2023-05-06T03:34:22.206Z,11.26
2023-05-06T03:36:50.114Z,11.25
2023-05-06T03:39:19.449Z,11.25
2023-05-06T03:41:47.448Z,11.25
2023-05-06T03:44:15.839Z,11.25
2023-05-06T03:46:43.778Z,11.23
2023-05-06T03:49:12.236Z,11.22
2023-05-06T03:51:41.349Z,11.22
2023-05-06T03:54:09.292Z,11.20
2023-05-06T03:56:38.580Z,11.21
2023-05-06T03:59:07.146Z,11.21
2023-05-06T04:01:35.383Z,11.22
2023-05-06T04:04:03.333Z,11.21
2023-05-06T04:06:31.706Z,11.21
2023-05-06T04:08:59.448Z,11.23
2023-05-06T04:11:29.669Z,11.21
2023-05-06T04:14:01.029Z,11.24
2023-05-06T04:16:29.349Z,11.24
2023-05-06T04:18:58.568Z,11.25
2023-05-06T04:21:26.966Z,11.27
2023-05-06T04:24:01.073Z,11.27
2023-05-06T04:26:35.067Z,11.27
2023-05-06T04:29:04.783Z,11.26
2023-05-06T04:31:35.305Z,11.27
2023-05-06T04:34:06.019Z,11.27
2023-05-06T04:36:34.406Z,11.29
2023-05-06T04:39:29.020Z,11.32
2023-05-06T04:41:58.092Z,11.34
2023-05-06T04:44:35.050Z,11.37
2023-05-06T04:47:05.245Z,11.40
2023-05-06T04:49:33.840Z,11.42
2023-05-06T04:52:03.469Z,11.45
2023-05-06T04:54:32.114Z,11.47
2023-05-06T04:57:00.121Z,11.49
2023-05-06T04:59:28.904Z,11.52
2023-05-06T05:01:58.302Z,11.55
2023-05-06T05:04:26.538Z,11.56
2023-05-06T05:06:54.651Z,11.59
2023-05-06T05:09:22.647Z,11.61
2023-05-06T05:11:51.141Z,11.65
2023-05-06T05:14:19.661Z,11.67
2023-05-06T05:16:47.728Z,11.69
2023-05-06T05:19:17.276Z,11.68
2023-05-06T05:21:45.121Z,11.70
2023-05-06T05:24:14.516Z,11.72
2023-05-06T05:26:42.790Z,11.72
2023-05-06T05:29:11.291Z,11.74
2023-05-06T05:31:39.379Z,11.76
2023-05-06T05:34:07.922Z,11.79
2023-05-06T05:36:37.150Z,11.81
2023-05-06T05:39:08.471Z,11.81
2023-05-06T05:41:42.377Z,11.83
2023-05-06T05:44:10.338Z,11.83
2023-05-06T05:46:39.788Z,11.84
2023-05-06T05:49:08.293Z,11.83
2023-05-06T05:51:38.109Z,11.83
2023-05-06T05:54:07.648Z,11.84
2023-05-06T05:56:36.229Z,11.85
2023-05-06T05:59:04.349Z,11.86
2023-05-06T06:01:32.367Z,11.88
2023-05-06T06:04:00.751Z,11.89
2023-05-06T06:06:28.805Z,11.92
2023-05-06T06:08:58.179Z,11.96
2023-05-06T06:11:27.008Z,12.00
2023-05-06T06:13:55.183Z,12.02
2023-05-06T06:16:23.534Z,12.03
2023-05-06T06:18:51.571Z,12.05
2023-05-06T06:21:19.580Z,12.05
2023-05-06T06:23:47.959Z,12.04
2023-05-06T06:26:17.592Z,12.05
2023-05-06T06:28:45.748Z,12.04
2023-05-06T06:31:13.573Z,12.04
2023-05-06T06:33:41.454Z,12.03
2023-05-06T06:36:10.732Z,12.02
2023-05-06T06:38:38.758Z,12.02
2023-05-06T06:41:06.711Z,12.02
2023-05-06T06:43:35.938Z,12.00
2023-05-06T06:46:17.199Z,12.00
2023-05-06T06:48:45.303Z,12.01
2023-05-06T06:51:13.059Z,12.02
2023-05-06T06:53:40.898Z,12.04
2023-05-06T06:56:11.918Z,12.07
2023-05-06T06:58:41.232Z,12.09
2023-05-06T07:01:09.502Z,12.10
2023-05-06T07:03:37.390Z,12.11
2023-05-06T07:06:05.465Z,12.12
2023-05-06T07:08:33.318Z,12.14
2023-05-06T07:11:01.122Z,12.15
2023-05-06T07:13:28.953Z,12.18
2023-05-06T07:15:58.754Z,12.22
2023-05-06T07:18:26.827Z,12.26
2023-05-06T07:20:54.645Z,12.30
2023-05-06T07:23:22.474Z,12.33
2023-05-06T07:25:50.548Z,12.37
2023-05-06T07:28:18.397Z,12.38
2023-05-06T07:30:46.261Z,12.38
2023-05-06T07:33:15.528Z,12.41
2023-05-06T07:35:43.277Z,12.44
2023-05-06T07:38:11.492Z,12.47
2023-05-06T07:40:39.510Z,12.53
2023-05-06T07:43:09.158Z,12.57
2023-05-06T07:45:36.987Z,12.62
2023-05-06T07:48:05.245Z,12.63
2023-05-06T07:50:37.685Z,12.62
2023-05-06T07:53:05.621Z,12.65
2023-05-06T07:55:35.105Z,12.68
2023-05-06T07:58:03.153Z,12.75
2023-05-06T08:00:30.898Z,12.82
2023-05-06T08:02:58.823Z,12.93
2023-05-06T08:05:26.731Z,13.01
2023-05-06T08:07:55.845Z,13.03
2023-05-06T08:10:23.665Z,13.08
2023-05-06T08:12:51.427Z,13.14
2023-05-06T08:15:19.335Z,13.16
2023-05-06T08:17:47.087Z,13.18
2023-05-06T08:20:16.272Z,13.26
2023-05-06T08:22:44.095Z,13.33
2023-05-06T08:25:13.401Z,13.43
2023-05-06T08:27:41.589Z,13.54
2023-05-06T08:30:10.910Z,13.63
2023-05-06T08:32:39.378Z,13.73
2023-05-06T08:35:08.486Z,13.76
2023-05-06T08:37:36.405Z,13.81
2023-05-06T08:40:05.359Z,13.90
2023-05-06T08:42:38.019Z,14.00
2023-05-06T08:45:07.620Z,14.03
2023-05-06T08:47:36.069Z,14.09
2023-05-06T08:50:03.887Z,14.14
2023-05-06T08:52:32.576Z,14.18
2023-05-06T08:55:04.967Z,14.25
2023-05-06T08:57:35.257Z,14.33
2023-05-06T09:00:04.745Z,14.44
2023-05-06T09:02:32.706Z,14.51
2023-05-06T09:05:01.040Z,14.59
2023-05-06T09:07:28.845Z,14.67
2023-05-06T09:09:56.687Z,14.73
2023-05-06T09:12:25.031Z,14.82
2023-05-06T09:14:55.590Z,14.89
2023-05-06T09:17:26.508Z,14.94
2023-05-06T09:19:57.132Z,15.00
2023-05-06T09:22:25.972Z,15.00
2023-05-06T09:24:57.001Z,15.07
2023-05-06T09:27:25.655Z,15.22
2023-05-06T09:30:05.948Z,15.30
2023-05-06T09:32:35.610Z,15.42
2023-05-06T09:35:05.320Z,15.51
2023-05-06T09:37:33.412Z,15.57
2023-05-06T09:40:01.843Z,15.63
2023-05-06T09:42:30.701Z,15.74
2023-05-06T09:45:02.238Z,15.87
2023-05-06T09:47:35.177Z,16.00
2023-05-06T09:50:04.105Z,16.18
2023-05-06T09:52:32.449Z,16.35
2023-05-06T09:55:01.694Z,16.56
2023-05-06T09:57:31.057Z,16.66
2023-05-06T09:59:59.907Z,16.74
2023-05-06T10:02:28.556Z,16.89
2023-05-06T10:04:58.295Z,17.05
2023-05-06T10:07:28.874Z,17.20
2023-05-06T10:09:59.213Z,17.33
2023-05-06T10:12:27.313Z,17.49
2023-05-06T10:14:55.516Z,17.70
2023-05-06T10:17:26.709Z,17.91
2023-05-06T10:19:59.895Z,18.08
2023-05-06T10:22:35.471Z,18.19
2023-05-06T10:25:07.063Z,18.28
2023-05-06T10:27:40.933Z,18.28
2023-05-06T10:30:11.658Z,18.31
2023-05-06T10:32:43.873Z,18.48
2023-05-06T10:35:20.304Z,18.63
2023-05-06T10:37:50.416Z,18.79
2023-05-06T10:40:18.497Z,18.85
2023-05-06T10:42:46.250Z,18.90
2023-05-06T10:45:15.413Z,18.93
2023-05-06T10:48:12.902Z,18.92
2023-05-06T10:50:46.229Z,18.86
2023-05-06T10:53:15.378Z,18.90
2023-05-06T10:55:46.599Z,18.93
2023-05-06T10:58:16.156Z,18.94
2023-05-06T11:00:55.915Z,18.97
2023-05-06T11:03:27.699Z,19.02
2023-05-06T11:06:04.106Z,19.08
2023-05-06T11:08:40.182Z,19.04
2023-05-06T11:12:03.106Z,18.97
2023-05-06T11:14:40.131Z,18.92
2023-05-06T11:17:12.294Z,18.91
2023-05-06T11:19:43.142Z,18.91
2023-05-06T11:22:52.938Z,18.93
2023-05-06T11:25:43.081Z,19.02
2023-05-06T11:28:12.099Z,19.03
2023-05-06T11:30:43.088Z,19.02
2023-05-06T11:33:18.547Z,19.01
2023-05-06T11:35:47.652Z,19.08
2023-05-06T11:38:16.943Z,19.13
2023-05-06T11:40:45.868Z,19.14
2023-05-06T11:43:15.080Z,19.17
2023-05-06T11:45:44.748Z,19.20
2023-05-06T11:48:13.996Z,19.24
2023-05-06T11:50:46.746Z,19.27
2023-05-06T11:53:19.767Z,19.25
2023-05-06T11:55:48.710Z,19.21
2023-05-06T11:58:20.222Z,19.15
2023-05-06T12:00:51.495Z,19.12
2023-05-06T12:03:20.022Z,19.16
2023-05-06T12:05:48.951Z,19.19
2023-05-06T12:08:27.228Z,19.21
2023-05-06T12:10:57.393Z,19.24
2023-05-06T12:13:25.371Z,19.28
2023-05-06T12:15:55.847Z,19.52
2023-05-06T12:18:25.253Z,19.78
2023-05-06T12:20:55.097Z,20.00
2023-05-06T12:23:24.433Z,20.24
2023-05-06T12:26:01.706Z,20.50
2023-05-06T12:28:29.591Z,20.53
2023-05-06T12:30:57.342Z,20.55
2023-05-06T12:33:25.108Z,20.65
2023-05-06T12:35:54.785Z,20.73
2023-05-06T12:38:23.935Z,20.83
2023-05-06T12:40:54.932Z,20.76
2023-05-06T12:43:30.262Z,20.66
2023-05-06T12:46:05.712Z,20.61
2023-05-06T12:48:33.521Z,20.52
2023-05-06T12:51:01.343Z,20.41
2023-05-06T12:53:35.221Z,20.24
2023-05-06T12:56:03.030Z,20.13
2023-05-06T12:58:37.341Z,19.95
2023-05-06T13:01:05.630Z,19.86
2023-05-06T13:03:34.157Z,19.68
2023-05-06T13:06:02.700Z,19.56
2023-05-06T13:08:30.758Z,19.43
2023-05-06T13:11:01.748Z,19.38
2023-05-06T13:13:29.496Z,19.38
2023-05-06T13:15:57.512Z,19.32
2023-05-06T13:18:25.255Z,19.29
2023-05-06T13:20:53.057Z,19.34
2023-05-06T13:23:20.847Z,19.51
2023-05-06T13:26:02.815Z,19.83
2023-05-06T13:28:34.029Z,19.94
2023-05-06T13:31:01.980Z,20.15
2023-05-06T13:33:30.043Z,20.31
2023-05-06T13:35:57.962Z,20.37
2023-05-06T13:38:25.725Z,20.64
2023-05-06T13:40:54.827Z,20.80
2023-05-06T13:43:24.623Z,20.95
2023-05-06T13:45:54.155Z,21.18
2023-05-06T13:48:21.906Z,21.35
2023-05-06T13:50:49.695Z,21.56
2023-05-06T13:53:17.565Z,21.54
2023-05-06T13:55:45.392Z,21.50
2023-05-06T13:58:13.210Z,21.38
2023-05-06T14:00:40.934Z,21.11
2023-05-06T14:03:10.003Z,20.89
2023-05-06T14:05:37.895Z,20.65
2023-05-06T14:08:06.184Z,20.61
2023-05-06T14:10:33.891Z,20.68
2023-05-06T14:13:01.627Z,20.57
2023-05-06T14:15:29.432Z,20.49
2023-05-06T14:17:57.239Z,20.49
2023-05-06T14:20:26.574Z,20.31
2023-05-06T14:22:54.273Z,20.07
2023-05-06T14:25:26.827Z,19.86
2023-05-06T14:27:55.127Z,19.71
2023-05-06T14:30:23.273Z,19.51
2023-05-06T14:32:51.015Z,19.39
2023-05-06T14:35:19.239Z,19.29
2023-05-06T14:37:48.307Z,19.19
2023-05-06T14:40:17.265Z,19.07
2023-05-06T14:42:45.414Z,18.93
2023-05-06T14:45:13.865Z,18.86
2023-05-06T14:47:41.681Z,18.80
2023-05-06T14:50:10.957Z,18.73
2023-05-06T14:52:39.531Z,18.60
2023-05-06T14:55:12.583Z,18.50
2023-05-06T14:57:40.543Z,18.42
2023-05-06T15:00:10.329Z,18.36
2023-05-06T15:02:40.599Z,18.26
2023-05-06T15:05:10.097Z,18.19
2023-05-06T15:07:38.471Z,18.15
2023-05-06T15:10:08.370Z,18.11
2023-05-06T15:12:37.143Z,18.18
2023-05-06T15:15:06.048Z,18.31
2023-05-06T15:17:33.869Z,18.45
2023-05-06T15:20:01.995Z,18.54
2023-05-06T15:22:29.775Z,18.55
2023-05-06T15:24:57.496Z,18.55
2023-05-06T15:27:26.640Z,18.38
2023-05-06T15:29:57.881Z,18.21
2023-05-06T15:32:26.152Z,18.04
2023-05-06T15:34:54.222Z,17.88
2023-05-06T15:37:22.314Z,17.74
2023-05-06T15:39:50.103Z,17.56
2023-05-06T15:42:17.858Z,17.41
2023-05-06T15:44:48.481Z,17.32
2023-05-06T15:47:16.284Z,17.24
2023-05-06T15:49:52.847Z,17.14
2023-05-06T15:52:23.589Z,17.09
2023-05-06T15:54:51.910Z,16.98
2023-05-06T15:57:19.759Z,16.90
2023-05-06T15:59:48.929Z,16.83
2023-05-06T16:04:47.599Z,16.70
2023-05-06T16:07:15.750Z,16.57
2023-05-06T16:09:44.340Z,16.45
2023-05-06T16:12:12.205Z,16.30
2023-05-06T16:14:40.219Z,16.14
2023-05-06T16:17:09.366Z,16.03
2023-05-06T16:19:37.198Z,15.90
2023-05-06T16:22:05.262Z,15.78
2023-05-06T16:24:33.779Z,15.69
2023-05-06T16:27:01.803Z,15.61
2023-05-06T16:29:29.577Z,15.52
2023-05-06T16:31:57.515Z,15.42
2023-05-06T16:34:27.501Z,15.33
2023-05-06T16:36:55.346Z,15.25
2023-05-06T16:39:23.548Z,15.17
2023-05-06T16:41:51.377Z,15.08
2023-05-06T16:44:19.347Z,14.99
2023-05-06T16:46:47.635Z,14.93
2023-05-06T16:49:15.640Z,14.89
2023-05-06T16:51:44.843Z,14.83
2023-05-06T16:54:12.655Z,14.75
2023-05-06T16:56:51.352Z,14.66
2023-05-06T16:59:21.937Z,14.59
2023-05-06T17:01:50.446Z,14.51
2023-05-06T17:04:19.045Z,14.44
2023-05-06T17:06:48.454Z,14.37
2023-05-06T17:09:16.920Z,14.34
2023-05-06T17:11:45.184Z,14.26
2023-05-06T17:14:13.812Z,14.18
2023-05-06T17:16:43.156Z,14.08
2023-05-06T17:19:11.931Z,13.98
2023-05-06T17:21:39.894Z,13.93
2023-05-06T17:24:09.190Z,13.86
2023-05-06T17:26:38.280Z,13.82
2023-05-06T17:29:06.383Z,13.79
2023-05-06T17:31:34.241Z,13.73
2023-05-06T17:34:02.219Z,13.69
2023-05-06T17:36:30.092Z,13.63
2023-05-06T17:39:03.215Z,13.59
2023-05-06T17:41:32.514Z,13.55
2023-05-06T17:44:00.873Z,13.49
2023-05-06T17:46:28.928Z,13.45
2023-05-06T17:48:56.756Z,13.41
2023-05-06T17:51:24.766Z,13.35
2023-05-06T17:53:52.599Z,13.32
2023-05-06T17:56:20.639Z,13.24
2023-05-06T17:58:49.866Z,13.20
2023-05-06T18:01:17.743Z,13.13
2023-05-06T18:03:46.061Z,13.04
2023-05-06T18:06:13.961Z,12.97
2023-05-06T18:08:41.766Z,12.88
2023-05-06T18:11:09.889Z,12.80
2023-05-06T18:13:37.750Z,12.76
2023-05-06T18:16:07.583Z,12.67
2023-05-06T18:18:35.472Z,12.62
2023-05-06T18:21:03.314Z,12.57
2023-05-06T18:23:36.115Z,12.52
2023-05-06T18:26:05.854Z,12.47
2023-05-06T18:28:37.397Z,12.43
2023-05-06T18:31:06.107Z,12.36
2023-05-06T18:33:35.672Z,12.32
2023-05-06T18:36:03.595Z,12.28
2023-05-06T18:38:31.575Z,12.26
2023-05-06T18:40:59.614Z,12.22
2023-05-06T18:43:28.409Z,12.17
2023-05-06T18:45:56.421Z,12.12
2023-05-06T18:48:24.604Z,12.08
2023-05-06T18:50:54.406Z,12.03
2023-05-06T18:53:24.187Z,12.02
2023-05-06T18:55:52.832Z,11.97
2023-05-06T18:58:20.909Z,11.91
2023-05-06T19:00:48.987Z,11.87
2023-05-06T19:03:17.073Z,11.82
2023-05-06T19:05:45.768Z,11.75
2023-05-06T19:08:16.279Z,11.70
2023-05-06T19:10:44.491Z,11.69
2023-05-06T19:13:12.571Z,11.62
2023-05-06T19:15:40.564Z,11.58
2023-05-06T19:18:08.636Z,11.57
2023-05-06T19:20:37.281Z,11.53
2023-05-06T19:23:05.566Z,11.51
2023-05-06T19:25:39.675Z,11.52
2023-05-06T19:28:09.545Z,11.49
2023-05-06T19:30:38.191Z,11.49
2023-05-06T19:33:06.825Z,11.48
2023-05-06T19:35:35.546Z,11.45
2023-05-06T19:38:04.692Z,11.40
2023-05-06T19:40:32.773Z,11.36
2023-05-06T19:43:03.897Z,11.34
2023-05-06T19:45:32.652Z,11.30
2023-05-06T19:48:04.162Z,11.30
2023-05-06T19:50:34.339Z,11.28
2023-05-06T19:53:02.292Z,11.27
2023-05-06T19:55:30.113Z,11.23
2023-05-06T19:57:58.328Z,11.21
2023-05-06T20:00:28.236Z,11.20
2023-05-06T20:02:58.510Z,11.16
2023-05-06T20:05:29.689Z,11.14
2023-05-06T20:07:59.465Z,11.13
2023-05-06T20:10:27.882Z,11.10
2023-05-06T20:12:57.757Z,11.10
2023-05-06T20:15:28.329Z,11.06
2023-05-06T20:17:56.244Z,11.04
2023-05-06T20:20:24.415Z,11.01
2023-05-06T20:22:52.406Z,10.96
2023-05-06T20:25:20.612Z,10.92
2023-05-06T20:27:48.430Z,10.90
2023-05-06T20:30:17.353Z,10.89
2023-05-06T20:32:49.103Z,10.86
2023-05-06T20:35:18.801Z,10.85
2023-05-06T20:37:47.074Z,10.82
2023-05-06T20:40:16.075Z,10.79
2023-05-06T20:42:44.075Z,10.77
2023-05-06T20:45:12.089Z,10.75
2023-05-06T20:47:40.256Z,10.75
2023-05-06T20:50:16.895Z,10.73
2023-05-06T20:52:45.742Z,10.70
2023-05-06T20:55:15.354Z,10.67
2023-05-06T20:57:43.616Z,10.63
2023-05-06T21:00:12.549Z,10.62
2023-05-06T21:02:43.170Z,10.61
2023-05-06T21:05:13.070Z,10.61
2023-05-06T21:07:41.322Z,10.61
2023-05-06T21:10:12.120Z,10.61
2023-05-06T21:12:40.126Z,10.59
2023-05-06T21:15:09.564Z,10.58
2023-05-06T21:17:37.568Z,10.57
2023-05-06T21:20:06.420Z,10.55
2023-05-06T21:22:35.738Z,10.52
2023-05-06T21:25:03.521Z,10.52
2023-05-06T21:27:31.359Z,10.52
2023-05-06T21:29:59.124Z,10.53
2023-05-06T21:32:27.789Z,10.50
2023-05-06T21:34:55.615Z,10.50
2023-05-06T21:37:23.352Z,10.48
2023-05-06T21:39:54.069Z,10.48
2023-05-06T21:42:21.873Z,10.46
2023-05-06T21:44:49.602Z,10.43
2023-05-06T21:47:19.120Z,10.41
2023-05-06T21:49:47.688Z,10.40
2023-05-06T21:52:15.887Z,10.38
2023-05-06T21:54:46.881Z,10.38
2023-05-06T21:57:16.914Z,10.37
2023-05-06T21:59:44.744Z,10.36
2023-05-06T22:02:12.761Z,10.36
2023-05-06T22:04:40.744Z,10.34
2023-05-06T22:07:08.968Z,10.35
2023-05-06T22:09:36.948Z,10.32
2023-05-06T22:12:06.799Z,10.32
2023-05-06T22:14:40.920Z,10.30
2023-05-06T22:17:10.597Z,10.26
2023-05-06T22:19:40.838Z,10.23
2023-05-06T22:22:09.110Z,10.22
2023-05-06T22:24:36.934Z,10.19
2023-05-06T22:27:04.844Z,10.18
2023-05-06T22:29:35.012Z,10.18
2023-05-06T22:32:04.293Z,10.16
2023-05-06T22:34:32.098Z,10.17
2023-05-06T22:37:01.040Z,10.14
2023-05-06T22:39:29.112Z,10.11
2023-05-06T22:41:57.254Z,10.09
2023-05-06T22:44:25.098Z,10.07
2023-05-06T22:46:53.112Z,10.07
2023-05-06T22:49:22.347Z,10.05
2023-05-06T22:51:50.431Z,10.03
2023-05-06T22:54:18.424Z,10.00
2023-05-06T22:56:46.298Z,9.98
2023-05-06T22:59:14.170Z,9.96
2023-05-06T23:01:42.478Z,9.96
2023-05-06T23:04:11.179Z,9.95
2023-05-06T23:06:41.104Z,9.95
2023-05-06T23:09:09.567Z,9.93
2023-05-06T23:11:37.389Z,9.95
2023-05-06T23:14:06.642Z,9.95
2023-05-06T23:16:34.690Z,9.95
2023-05-06T23:19:02.490Z,9.93
2023-05-06T23:21:30.368Z,9.92
2023-05-06T23:23:59.533Z,9.93
2023-05-06T23:26:28.232Z,9.89
2023-05-06T23:28:56.114Z,9.88
2023-05-06T23:31:24.155Z,9.86
2023-05-06T23:33:52.084Z,9.85
2023-05-06T23:36:19.962Z,9.85
2023-05-06T23:38:47.956Z,9.84
2023-05-06T23:41:17.164Z,9.83
2023-05-06T23:43:44.982Z,9.83
2023-05-06T23:46:12.971Z,9.81
2023-05-06T23:48:40.884Z,9.81
2023-05-06T23:51:08.744Z,9.79
2023-05-06T23:53:37.340Z,9.81
2023-05-06T23:56:06.071Z,9.80
2023-05-06T23:58:35.232Z,9.81
